Time;durP1;ratioP1;P1;durP2;ratioP2;P2;SDS_P1;SDS_P2;PMS_P1;PMS_P2;Temp;Humidity;BMP_temperature;BMP_pressure;BME280_temperature;BME280_humidity;BME280_pressure;Samples;Min_cycle;Max_cycle;Signal;HPM_P1;HPM_P2
2023/10/14 00:00:40;;;;;;;11.88;11.05;;;;;;;;;;4148153;28;20041;-62
2023/10/14 00:02:42;;;;;;;11.15;10.40;;;;;;;;;;4148364;28;20540;-63
2023/10/14 00:04:46;;;;;;;11.10;10.50;;;;;;;;;;4148423;28;20042;-62
2023/10/14 00:06:51;;;;;;;10.82;10.32;;;;;;;;;;4159933;28;20083;-63
2023/10/14 00:09:08;;;;;;;10.18;9.85;;;;;;;;;;4164778;28;20668;-62
2023/10/14 00:11:13;;;;;;;10.80;10.20;;;;;;;;;;4164292;28;20041;-62
2023/10/14 00:13:16;;;;;;;10.75;10.27;;;;;;;;;;4164238;28;20049;-63
2023/10/14 00:15:20;;;;;;;9.23;8.82;;;;;;;;;;4151286;28;20038;-63
2023/10/14 00:17:24;;;;;;;9.82;9.43;;;;;;;;;;4148195;28;20052;-63
2023/10/14 00:19:28;;;;;;;10.18;9.85;;;;;;;;;;4148116;28;20046;-62
2023/10/14 00:21:35;;;;;;;10.05;9.63;;;;;;;;;;4147903;28;20124;-64
2023/10/14 00:23:39;;;;;;;10.65;10.15;;;;;;;;;;4131956;28;20061;-62
2023/10/14 00:25:43;;;;;;;10.23;10.02;;;;;;;;;;4131774;28;20486;-63
2023/10/14 00:27:46;;;;;;;11.07;10.55;;;;;;;;;;4131580;28;20101;-63
2023/10/14 00:30:02;;;;;;;9.88;9.48;;;;;;;;;;4131897;28;20038;-63
2023/10/14 00:32:10;;;;;;;10.38;9.90;;;;;;;;;;4160022;28;20159;-63
2023/10/14 00:34:14;;;;;;;10.32;9.48;;;;;;;;;;4164315;28;20044;-63
2023/10/14 00:36:17;;;;;;;10.38;9.82;;;;;;;;;;4163922;28;20096;-63
2023/10/14 00:38:23;;;;;;;12.15;11.80;;;;;;;;;;4164261;28;20189;-64
2023/10/14 00:40:26;;;;;;;11.82;11.10;;;;;;;;;;4164126;28;20494;-62
2023/10/14 00:42:31;;;;;;;13.38;12.70;;;;;;;;;;4164187;28;20033;-62
2023/10/14 00:44:34;;;;;;;10.60;10.40;;;;;;;;;;4164211;28;20037;-62
2023/10/14 00:46:49;;;;;;;12.63;12.18;;;;;;;;;;4158834;28;20042;-63
2023/10/14 00:48:58;;;;;;;13.20;12.63;;;;;;;;;;4147944;28;20042;-63
2023/10/14 00:51:01;;;;;;;12.85;12.13;;;;;;;;;;4147935;28;20041;-63
2023/10/14 00:53:05;;;;;;;13.60;13.00;;;;;;;;;;4147885;28;20046;-62
2023/10/14 00:55:13;;;;;;;15.52;14.80;;;;;;;;;;4147766;28;20049;-63
2023/10/14 00:59:20;;;;;;;13.02;12.23;;;;;;;;;;4146629;28;20045;-62
2023/10/14 01:01:23;;;;;;;11.80;11.60;;;;;;;;;;4147999;28;20402;-67
2023/10/14 01:03:31;;;;;;;13.93;13.38;;;;;;;;;;4132926;28;20042;-66
2023/10/14 01:05:36;;;;;;;12.80;12.25;;;;;;;;;;4131081;28;20577;-67
2023/10/14 01:07:39;;;;;;;13.65;13.05;;;;;;;;;;4132364;28;20042;-67
2023/10/14 01:11:43;;;;;;;14.20;13.68;;;;;;;;;;4148765;28;20046;-66
2023/10/14 01:13:45;;;;;;;13.60;13.20;;;;;;;;;;4150939;28;20058;-66
2023/10/14 01:15:48;;;;;;;16.20;15.43;;;;;;;;;;4150736;28;20054;-66
2023/10/14 01:17:53;;;;;;;14.40;13.63;;;;;;;;;;4150609;28;20041;-66
2023/10/14 01:22:19;;;;;;;15.02;14.52;;;;;;;;;;4150513;28;20088;-67
2023/10/14 01:24:21;;;;;;;;;;;;;;;;;;4150948;28;20065;-67
2023/10/14 01:26:24;;;;;;;13.40;12.73;;;;;;;;;;4150499;28;20330;-66
2023/10/14 01:28:30;;;;;;;16.05;15.15;;;;;;;;;;4150558;28;20695;-66
2023/10/14 01:30:38;;;;;;;16.58;15.95;;;;;;;;;;4150372;28;20486;-66
2023/10/14 01:32:48;;;;;;;15.98;15.38;;;;;;;;;;4134319;28;20053;-67
2023/10/14 01:34:57;;;;;;;15.30;14.82;;;;;;;;;;4134439;28;20046;-66
2023/10/14 01:37:12;;;;;;;15.60;14.85;;;;;;;;;;4134165;28;20092;-67
2023/10/14 01:39:21;;;;;;;14.48;14.02;;;;;;;;;;4133958;28;20507;-67
2023/10/14 01:41:24;;;;;;;14.07;13.68;;;;;;;;;;4133892;28;20050;-66
2023/10/14 01:43:30;;;;;;;13.93;13.43;;;;;;;;;;4134245;28;20110;-67
2023/10/14 01:45:39;;;;;;;14.75;14.15;;;;;;;;;;4134049;28;20042;-67
2023/10/14 01:47:48;;;;;;;14.93;14.13;;;;;;;;;;4147574;28;20414;-67
2023/10/14 01:49:51;;;;;;;16.00;15.38;;;;;;;;;;4150385;28;20041;-67
2023/10/14 01:51:53;;;;;;;13.60;13.13;;;;;;;;;;4149990;28;20119;-67
2023/10/14 01:53:55;;;;;;;13.90;13.50;;;;;;;;;;4150178;28;20481;-67
2023/10/14 01:56:01;;;;;;;15.63;14.83;;;;;;;;;;4150281;28;20041;-66
2023/10/14 01:58:03;;;;;;;15.32;14.80;;;;;;;;;;4151064;28;20062;-66
2023/10/14 02:00:24;;;;;;;15.55;15.02;;;;;;;;;;4166357;28;20124;-66
2023/10/14 02:02:27;;;;;;;16.23;15.70;;;;;;;;;;4166223;28;20048;-67
2023/10/14 02:04:29;;;;;;;15.85;15.10;;;;;;;;;;4166189;28;20042;-67
2023/10/14 02:06:31;;;;;;;;;;;;;;;;;;4164081;28;20046;-67
2023/10/14 02:08:33;;;;;;;16.90;16.23;;;;;;;;;;4149855;28;19928;-67
2023/10/14 02:10:36;;;;;;;16.95;16.17;;;;;;;;;;4149888;28;20045;-66
2023/10/14 02:12:37;;;;;;;16.67;16.17;;;;;;;;;;4149779;28;20111;-66
2023/10/14 02:14:44;;;;;;;15.87;15.17;;;;;;;;;;4145140;28;20289;-67
2023/10/14 02:16:45;;;;;;;17.40;16.60;;;;;;;;;;4133570;28;20052;-66
2023/10/14 02:18:47;;;;;;;82.95;18.20;;;;;;;;;;4132680;28;20042;-67
2023/10/14 02:23:21;;;;;;;57.40;15.88;;;;;;;;;;4083405;29;20055;-67
2023/10/14 02:25:27;;;;;;;15.18;14.77;;;;;;;;;;4083535;29;20052;-67
2023/10/14 02:27:30;;;;;;;15.40;14.15;;;;;;;;;;4083634;29;20055;-67
2023/10/14 02:29:32;;;;;;;17.10;16.30;;;;;;;;;;4083475;29;20087;-66
2023/10/14 02:31:38;;;;;;;17.60;16.98;;;;;;;;;;4102480;28;20122;-67
2023/10/14 02:33:40;;;;;;;16.80;16.00;;;;;;;;;;4115191;28;20126;-67
2023/10/14 02:35:41;;;;;;;16.08;15.15;;;;;;;;;;4115198;28;20491;-67
2023/10/14 02:37:43;;;;;;;17.77;16.57;;;;;;;;;;4115238;28;20061;-67
2023/10/14 02:39:48;;;;;;;28.13;16.48;;;;;;;;;;4114924;28;20508;-67
2023/10/14 02:41:59;;;;;;;19.85;17.60;;;;;;;;;;4115265;28;20074;-67
2023/10/14 02:46:10;;;;;;;18.75;17.63;;;;;;;;;;4113818;28;20053;-67
2023/10/14 02:48:18;;;;;;;24.55;17.73;;;;;;;;;;4098992;29;20062;-66
2023/10/14 02:50:24;;;;;;;24.42;15.63;;;;;;;;;;4099098;29;20097;-67
2023/10/14 02:52:29;;;;;;;17.85;17.10;;;;;;;;;;4099054;29;20058;-66
2023/10/14 02:54:34;;;;;;;19.00;18.02;;;;;;;;;;4101852;28;20045;-67
2023/10/14 02:58:56;;;;;;;19.42;18.20;;;;;;;;;;4114891;28;20137;-67
2023/10/14 03:00:59;;;;;;;19.40;17.87;;;;;;;;;;4162120;28;20088;-67
2023/10/14 03:03:13;;;;;;;20.00;18.25;;;;;;;;;;4160513;28;20112;-67
2023/10/14 03:07:46;;;;;;;19.45;18.40;;;;;;;;;;4149011;28;20604;-66
2023/10/14 03:09:47;;;;;;;21.20;19.80;;;;;;;;;;4149064;28;20502;-67
2023/10/14 03:11:49;;;;;;;19.42;18.33;;;;;;;;;;4136822;28;20084;-66
2023/10/14 03:13:51;;;;;;;21.20;20.00;;;;;;;;;;4132860;28;20050;-67
2023/10/14 03:15:52;;;;;;;32.87;19.20;;;;;;;;;;4132662;28;20038;-66
2023/10/14 03:17:56;;;;;;;18.05;17.15;;;;;;;;;;4132596;28;20555;-67
2023/10/14 03:20:08;;;;;;;24.17;19.58;;;;;;;;;;4131270;28;20110;-67
2023/10/14 03:22:10;;;;;;;19.83;18.20;;;;;;;;;;4132516;28;20380;-67
2023/10/14 03:24:17;;;;;;;17.70;16.77;;;;;;;;;;4132404;28;20042;-66
2023/10/14 03:26:20;;;;;;;18.95;17.88;;;;;;;;;;4132277;28;20288;-67
2023/10/14 03:28:27;;;;;;;20.58;19.13;;;;;;;;;;4132497;28;20465;-66
2023/10/14 03:30:31;;;;;;;17.25;16.23;;;;;;;;;;4132886;28;20080;-67
2023/10/14 03:32:32;;;;;;;16.80;15.80;;;;;;;;;;4164888;28;20064;-67
2023/10/14 03:34:41;;;;;;;17.13;16.13;;;;;;;;;;4164938;28;20068;-67
2023/10/14 03:36:43;;;;;;;17.85;16.90;;;;;;;;;;4164761;28;20371;-67
2023/10/14 03:39:15;;;;;;;17.98;17.08;;;;;;;;;;4164680;28;20131;-67
2023/10/14 03:41:21;;;;;;;20.07;18.17;;;;;;;;;;4164670;28;20425;-67
2023/10/14 03:43:23;;;;;;;18.52;17.48;;;;;;;;;;4163842;28;20038;-66
2023/10/14 03:45:29;;;;;;;19.30;18.40;;;;;;;;;;4148382;28;20835;-67
2023/10/14 03:47:34;;;;;;;19.10;17.98;;;;;;;;;;4148234;28;20042;-66
2023/10/14 03:49:38;;;;;;;19.02;17.95;;;;;;;;;;4148296;28;20068;-66
2023/10/14 03:51:40;;;;;;;18.52;17.83;;;;;;;;;;4158521;28;20160;-67
2023/10/14 03:53:42;;;;;;;19.02;18.15;;;;;;;;;;4164574;28;20449;-67
2023/10/14 03:55:43;;;;;;;22.97;19.50;;;;;;;;;;4164734;28;20076;-67
2023/10/14 03:57:45;;;;;;;35.37;17.80;;;;;;;;;;4164816;28;20521;-66
2023/10/14 03:59:48;;;;;;;20.03;19.20;;;;;;;;;;4155758;28;20050;-66
2023/10/14 04:01:59;;;;;;;19.70;19.00;;;;;;;;;;4148029;28;20038;-66
2023/10/14 04:04:14;;;;;;;20.43;19.40;;;;;;;;;;4147965;28;20197;-66
2023/10/14 04:06:19;;;;;;;19.75;18.25;;;;;;;;;;4148133;28;20041;-66
2023/10/14 04:08:30;;;;;;;24.77;18.30;;;;;;;;;;4133873;28;20495;-66
2023/10/14 04:10:38;;;;;;;19.20;18.42;;;;;;;;;;4131788;28;20134;-67
2023/10/14 04:12:52;;;;;;;19.52;18.63;;;;;;;;;;4131845;28;20065;-66
2023/10/14 04:14:54;;;;;;;17.27;16.65;;;;;;;;;;4131851;28;20042;-66
2023/10/14 04:19:44;;;;;;;18.98;18.33;;;;;;;;;;4131944;28;20046;-66
2023/10/14 04:21:53;;;;;;;20.02;19.20;;;;;;;;;;4131973;28;20048;-66
2023/10/14 04:26:30;;;;;;;21.52;20.33;;;;;;;;;;4081833;29;20059;-67
2023/10/14 04:28:33;;;;;;;18.67;17.85;;;;;;;;;;4131159;28;20518;-67
2023/10/14 04:30:44;;;;;;;19.58;18.65;;;;;;;;;;4134961;28;20052;-67
2023/10/14 04:34:49;;;;;;;20.85;19.15;;;;;;;;;;4164291;28;20045;-67
2023/10/14 04:36:54;;;;;;;19.73;19.00;;;;;;;;;;4163982;28;20037;-66
2023/10/14 04:39:11;;;;;;;21.55;19.90;;;;;;;;;;4162556;28;20080;-67
2023/10/14 04:41:14;;;;;;;20.73;19.83;;;;;;;;;;4150409;28;20038;-66
2023/10/14 04:45:29;;;;;;;21.00;20.25;;;;;;;;;;4147463;28;20045;-66
2023/10/14 04:47:38;;;;;;;18.70;17.85;;;;;;;;;;4154491;28;20422;-67
2023/10/14 04:49:42;;;;;;;28.63;18.73;;;;;;;;;;4158465;28;20048;-67
2023/10/14 04:51:46;;;;;;;19.83;18.95;;;;;;;;;;4140397;28;20073;-67
2023/10/14 04:53:51;;;;;;;23.48;18.33;;;;;;;;;;4131337;28;20046;-67
2023/10/14 04:55:54;;;;;;;80.95;20.25;;;;;;;;;;4138834;28;20096;-67
2023/10/14 05:00:19;;;;;;;19.75;19.05;;;;;;;;;;4147499;28;20042;-66
2023/10/14 05:02:21;;;;;;;37.42;18.55;;;;;;;;;;4147435;28;20514;-66
2023/10/14 05:04:29;;;;;;;17.25;16.10;;;;;;;;;;4138311;28;20046;-67
2023/10/14 05:06:39;;;;;;;16.13;15.65;;;;;;;;;;4145673;28;20094;-67
2023/10/14 05:08:44;;;;;;;17.73;16.55;;;;;;;;;;4147815;28;20041;-67
2023/10/14 05:10:50;;;;;;;15.98;15.50;;;;;;;;;;4147648;28;20065;-67
2023/10/14 05:12:52;;;;;;;35.70;16.60;;;;;;;;;;4147411;28;20550;-67
2023/10/14 05:14:55;;;;;;;16.92;16.42;;;;;;;;;;4147409;28;20072;-67
2023/10/14 05:16:58;;;;;;;59.33;16.45;;;;;;;;;;4147625;28;20046;-67
2023/10/14 05:19:07;;;;;;;;;;;;;;;;;;4147885;28;20140;-67
2023/10/14 05:21:35;;;;;;;19.50;17.08;;;;;;;;;;4147356;28;19921;-67
2023/10/14 05:23:38;;;;;;;16.50;16.10;;;;;;;;;;4147430;28;20601;-66
2023/10/14 05:25:39;;;;;;;17.60;17.20;;;;;;;;;;4147382;28;20076;-67
2023/10/14 05:27:58;;;;;;;18.45;17.75;;;;;;;;;;4147478;28;20104;-67
2023/10/14 05:30:06;;;;;;;19.05;18.52;;;;;;;;;;4147398;28;20552;-66
2023/10/14 05:32:10;;;;;;;18.67;17.80;;;;;;;;;;4157068;28;20038;-67
2023/10/14 05:34:13;;;;;;;18.67;18.08;;;;;;;;;;4163551;28;20038;-66
2023/10/14 05:36:15;;;;;;;15.55;15.20;;;;;;;;;;4159712;28;20034;-67
2023/10/14 05:38:19;;;;;;;17.75;17.13;;;;;;;;;;4146623;28;20522;-66
2023/10/14 05:40:21;;;;;;;20.08;19.27;;;;;;;;;;4136095;28;20046;-67
2023/10/14 05:42:24;;;;;;;22.05;20.65;;;;;;;;;;4141673;28;20506;-67
2023/10/14 05:44:29;;;;;;;21.65;19.77;;;;;;;;;;4140590;28;20133;-66
2023/10/14 05:46:31;;;;;;;33.97;19.60;;;;;;;;;;4140452;28;20046;-67
2023/10/14 05:48:33;;;;;;;40.40;21.08;;;;;;;;;;4143156;28;20125;-67
2023/10/14 05:50:37;;;;;;;30.40;20.47;;;;;;;;;;4147201;28;20049;-67
2023/10/14 05:52:39;;;;;;;19.15;17.85;;;;;;;;;;4146980;28;20045;-67
2023/10/14 05:54:50;;;;;;;33.22;21.83;;;;;;;;;;4149560;28;20540;-67
2023/10/14 05:56:51;;;;;;;83.43;22.00;;;;;;;;;;4142056;28;20054;-67
2023/10/14 05:58:53;;;;;;;23.80;21.35;;;;;;;;;;4136696;28;20402;-67
2023/10/14 06:00:55;;;;;;;21.33;20.50;;;;;;;;;;4142077;28;20430;-67
2023/10/14 06:02:58;;;;;;;20.42;18.80;;;;;;;;;;4149141;28;20080;-66
2023/10/14 06:04:59;;;;;;;21.17;20.58;;;;;;;;;;4149217;28;20077;-67
2023/10/14 06:07:01;;;;;;;21.50;19.55;;;;;;;;;;4160219;28;20036;-67
2023/10/14 06:09:03;;;;;;;70.20;20.42;;;;;;;;;;4166019;28;20076;-67
2023/10/14 06:11:05;;;;;;;41.70;18.80;;;;;;;;;;4166096;28;20490;-67
2023/10/14 06:13:08;;;;;;;30.48;21.83;;;;;;;;;;4165921;28;20079;-66
2023/10/14 06:15:10;;;;;;;28.67;20.17;;;;;;;;;;4163730;28;20474;-67
2023/10/14 06:17:12;;;;;;;21.77;21.13;;;;;;;;;;4149583;28;20510;-66
2023/10/14 06:19:17;;;;;;;104.88;21.67;;;;;;;;;;4138910;28;20467;-66
2023/10/14 06:21:19;;;;;;;33.20;19.85;;;;;;;;;;4143416;28;20061;-66
2023/10/14 06:23:23;;;;;;;21.67;20.73;;;;;;;;;;4138656;28;20048;-66
2023/10/14 06:25:30;;;;;;;18.13;17.60;;;;;;;;;;4142042;28;20304;-67
2023/10/14 06:27:32;;;;;;;19.88;18.15;;;;;;;;;;4134785;28;20034;-68
2023/10/14 06:29:34;;;;;;;63.25;18.80;;;;;;;;;;4133150;28;20041;-67
2023/10/14 06:31:40;;;;;;;27.70;18.10;;;;;;;;;;4153019;28;20501;-67
2023/10/14 06:33:42;;;;;;;23.42;18.67;;;;;;;;;;4147747;28;20043;-67
2023/10/14 06:35:43;;;;;;;76.70;18.92;;;;;;;;;;4143693;28;20402;-67
2023/10/14 06:37:46;;;;;;;20.75;19.35;;;;;;;;;;4141982;28;20060;-68
2023/10/14 06:39:47;;;;;;;28.90;18.33;;;;;;;;;;4139624;28;20487;-68
2023/10/14 06:41:49;;;;;;;38.35;18.38;;;;;;;;;;4144655;28;20112;-67
2023/10/14 06:43:55;;;;;;;17.83;16.83;;;;;;;;;;4145812;28;20132;-67
2023/10/14 06:45:58;;;;;;;17.35;16.95;;;;;;;;;;4149111;28;20045;-68
2023/10/14 06:48:03;;;;;;;18.50;17.90;;;;;;;;;;4135727;28;20034;-68
2023/10/14 06:50:06;;;;;;;18.33;17.80;;;;;;;;;;4149192;28;20045;-68
2023/10/14 06:52:11;;;;;;;16.35;15.60;;;;;;;;;;4149344;28;20052;-67
2023/10/14 06:54:14;;;;;;;15.25;14.85;;;;;;;;;;4157808;28;20049;-68
2023/10/14 06:56:15;;;;;;;17.77;17.20;;;;;;;;;;4157997;28;20433;-68
2023/10/14 06:58:19;;;;;;;18.80;18.10;;;;;;;;;;4149107;28;20042;-68
2023/10/14 07:00:29;;;;;;;16.75;16.08;;;;;;;;;;4149157;28;20297;-67
2023/10/14 07:02:31;;;;;;;18.15;17.55;;;;;;;;;;4147893;28;20042;-68
2023/10/14 07:04:37;;;;;;;16.45;16.05;;;;;;;;;;4140841;28;20050;-68
2023/10/14 07:06:42;;;;;;;16.85;16.33;;;;;;;;;;4132133;28;20039;-67
2023/10/14 07:08:44;;;;;;;14.73;14.30;;;;;;;;;;4135106;28;20080;-67
2023/10/14 07:10:47;;;;;;;14.43;13.77;;;;;;;;;;4145720;28;20224;-68
2023/10/14 07:12:50;;;;;;;14.73;14.23;;;;;;;;;;4147556;28;20030;-68
2023/10/14 07:14:53;;;;;;;14.52;14.20;;;;;;;;;;4148707;28;20050;-67
2023/10/14 07:16:54;;;;;;;15.73;14.95;;;;;;;;;;4148804;28;20046;-67
2023/10/14 07:18:56;;;;;;;16.80;15.38;;;;;;;;;;4147533;28;20053;-67
2023/10/14 07:21:00;;;;;;;16.30;15.55;;;;;;;;;;4148872;28;20045;-67
2023/10/14 07:23:03;;;;;;;14.70;13.98;;;;;;;;;;4148729;28;20049;-66
2023/10/14 07:25:05;;;;;;;14.80;14.25;;;;;;;;;;4148509;28;20116;-68
2023/10/14 07:27:07;;;;;;;16.15;15.27;;;;;;;;;;4148669;28;20133;-67
2023/10/14 07:29:08;;;;;;;15.02;14.30;;;;;;;;;;4148523;28;20068;-67
2023/10/14 07:31:11;;;;;;;16.00;15.37;;;;;;;;;;4153360;28;20046;-67
2023/10/14 07:33:13;;;;;;;13.30;12.90;;;;;;;;;;4164866;28;20045;-67
2023/10/14 07:35:16;;;;;;;13.23;12.70;;;;;;;;;;4164851;28;20077;-67
2023/10/14 07:37:18;;;;;;;14.35;13.48;;;;;;;;;;4164932;28;20057;-67
2023/10/14 07:39:27;;;;;;;13.00;12.48;;;;;;;;;;4164425;28;20101;-67
2023/10/14 07:41:29;;;;;;;12.35;11.68;;;;;;;;;;4164657;28;20115;-67
2023/10/14 07:43:33;;;;;;;9.63;9.23;;;;;;;;;;4164748;28;20496;-67
2023/10/14 07:45:37;;;;;;;12.43;11.80;;;;;;;;;;4149311;28;20305;-67
2023/10/14 07:47:40;;;;;;;11.73;11.07;;;;;;;;;;4148304;28;20088;-67
2023/10/14 07:49:44;;;;;;;10.43;9.82;;;;;;;;;;4148405;28;20045;-67
2023/10/14 07:51:46;;;;;;;8.43;8.00;;;;;;;;;;4148255;28;20030;-66
2023/10/14 07:53:48;;;;;;;8.27;7.80;;;;;;;;;;4148453;28;20044;-67
2023/10/14 07:55:56;;;;;;;6.20;5.90;;;;;;;;;;4148328;28;20042;-66
2023/10/14 07:58:00;;;;;;;6.53;5.97;;;;;;;;;;4148291;28;20296;-67
2023/10/14 08:00:11;;;;;;;5.40;5.20;;;;;;;;;;4148386;28;20133;-67
2023/10/14 08:02:18;;;;;;;5.95;5.68;;;;;;;;;;4148340;28;20136;-66
2023/10/14 08:04:23;;;;;;;6.25;5.95;;;;;;;;;;4146763;28;20124;-67
2023/10/14 08:06:25;;;;;;;7.40;6.78;;;;;;;;;;4148317;28;20503;-66
2023/10/14 08:08:31;;;;;;;6.68;6.15;;;;;;;;;;4148398;28;20042;-65
2023/10/14 08:10:33;;;;;;;6.57;6.22;;;;;;;;;;4148046;28;20402;-67
2023/10/14 08:12:34;;;;;;;5.22;4.93;;;;;;;;;;4148104;28;20092;-67
2023/10/14 08:14:38;;;;;;;5.95;5.85;;;;;;;;;;4147982;28;20038;-66
2023/10/14 08:16:41;;;;;;;4.80;4.50;;;;;;;;;;4148071;28;20529;-66
2023/10/14 08:18:44;;;;;;;5.57;5.18;;;;;;;;;;4148241;28;20046;-66
2023/10/14 08:20:46;;;;;;;5.30;5.13;;;;;;;;;;4147971;28;20498;-66
2023/10/14 08:22:48;;;;;;;7.22;6.88;;;;;;;;;;4147956;28;20060;-66
2023/10/14 08:24:49;;;;;;;5.60;5.40;;;;;;;;;;4147757;28;20133;-67
2023/10/14 08:26:51;;;;;;;5.85;5.50;;;;;;;;;;4147916;28;20038;-67
2023/10/14 08:28:59;;;;;;;4.97;4.67;;;;;;;;;;4148023;28;20049;-65
2023/10/14 08:31:04;;;;;;;4.95;4.47;;;;;;;;;;4151777;28;20038;-66
2023/10/14 08:33:09;;;;;;;5.65;5.15;;;;;;;;;;4140720;28;20038;-65
2023/10/14 08:35:17;;;;;;;5.75;5.30;;;;;;;;;;4131645;28;20038;-66
2023/10/14 08:37:19;;;;;;;7.10;4.57;;;;;;;;;;4131797;28;20050;-66
2023/10/14 08:39:23;;;;;;;5.20;4.90;;;;;;;;;;4131306;28;20121;-66
2023/10/14 08:41:26;;;;;;;4.40;3.78;;;;;;;;;;4131525;28;20477;-66
2023/10/14 08:43:30;;;;;;;5.25;4.75;;;;;;;;;;4131635;28;20121;-66
2023/10/14 08:45:36;;;;;;;4.32;4.13;;;;;;;;;;4146036;28;20046;-66
2023/10/14 08:47:40;;;;;;;4.57;4.38;;;;;;;;;;4147481;28;20042;-66
2023/10/14 08:49:42;;;;;;;4.82;4.53;;;;;;;;;;4147623;28;20445;-66
2023/10/14 08:51:45;;;;;;;4.72;4.35;;;;;;;;;;4147762;28;20557;-65
2023/10/14 08:53:56;;;;;;;4.13;3.45;;;;;;;;;;4147720;28;20046;-66
2023/10/14 08:55:58;;;;;;;5.70;5.30;;;;;;;;;;4147745;28;20050;-66
2023/10/14 08:58:06;;;;;;;6.45;6.00;;;;;;;;;;4147703;28;20092;-66
2023/10/14 09:00:12;;;;;;;4.47;4.20;;;;;;;;;;4147645;28;20053;-66
2023/10/14 09:02:14;;;;;;;4.93;4.38;;;;;;;;;;4147458;28;20045;-65
2023/10/14 09:04:25;;;;;;;3.47;3.15;;;;;;;;;;4147518;28;20061;-66
2023/10/14 09:06:26;;;;;;;4.45;4.15;;;;;;;;;;4147621;28;20046;-66
2023/10/14 09:08:32;;;;;;;3.92;3.38;;;;;;;;;;4147900;28;20092;-66
2023/10/14 09:10:36;;;;;;;4.43;3.40;;;;;;;;;;4147736;28;20129;-66
2023/10/14 09:12:39;;;;;;;6.10;3.95;;;;;;;;;;4147522;28;20474;-66
2023/10/14 09:14:42;;;;;;;5.03;4.57;;;;;;;;;;4147555;28;20069;-66
2023/10/14 09:16:48;;;;;;;5.72;3.88;;;;;;;;;;4147440;28;20045;-66
2023/10/14 09:18:57;;;;;;;4.38;4.22;;;;;;;;;;4147669;28;20060;-66
2023/10/14 09:21:05;;;;;;;4.10;3.55;;;;;;;;;;4147618;28;20494;-66
2023/10/14 09:23:10;;;;;;;8.07;5.88;;;;;;;;;;4147495;28;20037;-65
2023/10/14 09:25:14;;;;;;;3.95;3.55;;;;;;;;;;4147312;28;20528;-66
2023/10/14 09:27:16;;;;;;;3.75;3.50;;;;;;;;;;4147409;28;20034;-66
2023/10/14 09:29:19;;;;;;;4.13;3.85;;;;;;;;;;4138214;28;20097;-66
2023/10/14 09:31:25;;;;;;;4.63;4.22;;;;;;;;;;4150147;28;20083;-66
2023/10/14 09:33:27;;;;;;;3.67;3.03;;;;;;;;;;4167088;28;20033;-66
2023/10/14 09:35:30;;;;;;;3.70;3.42;;;;;;;;;;4166670;28;20134;-66
2023/10/14 09:37:32;;;;;;;4.03;2.58;;;;;;;;;;4166877;28;20042;-66
2023/10/14 09:39:34;;;;;;;3.90;2.83;;;;;;;;;;4144255;28;20521;-66
2023/10/14 09:41:37;;;;;;;4.43;2.50;;;;;;;;;;4147193;28;20507;-66
2023/10/14 09:43:48;;;;;;;5.97;2.35;;;;;;;;;;4139022;28;20054;-66
2023/10/14 09:45:56;;;;;;;5.13;3.42;;;;;;;;;;4139982;28;20402;-66
2023/10/14 09:47:59;;;;;;;2.85;2.75;;;;;;;;;;4148249;28;20055;-65
2023/10/14 09:50:01;;;;;;;4.13;2.60;;;;;;;;;;4143414;28;20741;-65
2023/10/14 09:52:03;;;;;;;4.13;2.42;;;;;;;;;;4143483;28;20093;-66
2023/10/14 09:54:05;;;;;;;3.08;2.75;;;;;;;;;;4144975;28;20046;-66
2023/10/14 09:56:10;;;;;;;;;;;;;;;;;;4147579;28;20046;-65
2023/10/14 09:58:18;;;;;;;2.08;1.95;;;;;;;;;;4147891;28;19922;-66
2023/10/14 10:00:21;;;;;;;2.80;2.60;;;;;;;;;;4150281;28;20053;-66
2023/10/14 10:02:23;;;;;;;5.53;2.58;;;;;;;;;;4150027;28;20520;-65
2023/10/14 10:04:28;;;;;;;8.20;2.72;;;;;;;;;;4143501;28;20418;-66
2023/10/14 10:06:35;;;;;;;2.38;2.03;;;;;;;;;;4143882;28;20053;-66
2023/10/14 10:08:40;;;;;;;3.47;2.30;;;;;;;;;;4137754;28;20038;-64
2023/10/14 10:10:42;;;;;;;4.00;2.58;;;;;;;;;;4142756;28;20418;-66
2023/10/14 10:12:52;;;;;;;3.03;2.53;;;;;;;;;;4149863;28;20060;-66
2023/10/14 10:14:57;;;;;;;1.80;1.70;;;;;;;;;;4149869;28;20050;-65
2023/10/14 10:17:03;;;;;;;4.38;2.80;;;;;;;;;;4148693;28;20577;-66
2023/10/14 10:19:05;;;;;;;2.42;1.80;;;;;;;;;;4133589;28;20046;-65
2023/10/14 10:21:07;;;;;;;3.58;2.05;;;;;;;;;;4138396;28;20109;-66
2023/10/14 10:23:10;;;;;;;2.58;2.33;;;;;;;;;;4147238;28;20074;-66
2023/10/14 10:25:14;;;;;;;2.97;2.33;;;;;;;;;;4146813;28;20046;-65
2023/10/14 10:27:16;;;;;;;2.50;2.03;;;;;;;;;;4148635;28;20449;-65
2023/10/14 10:29:21;;;;;;;2.05;1.70;;;;;;;;;;4142835;28;20037;-65
2023/10/14 10:31:24;;;;;;;2.08;1.63;;;;;;;;;;4145420;28;20033;-65
2023/10/14 10:33:27;;;;;;;;;;;;;;;;;;4149921;28;20077;-65
2023/10/14 10:35:28;;;;;;;11.07;2.15;;;;;;;;;;4143154;28;20293;-65
2023/10/14 10:37:32;;;;;;;3.63;1.88;;;;;;;;;;4142881;28;20046;-66
2023/10/14 10:39:37;;;;;;;3.60;1.92;;;;;;;;;;4147335;28;20074;-65
2023/10/14 10:41:38;;;;;;;3.75;2.22;;;;;;;;;;4144211;28;20112;-65
2023/10/14 10:43:40;;;;;;;3.30;1.95;;;;;;;;;;4140020;28;20046;-66
2023/10/14 10:45:42;;;;;;;3.75;2.13;;;;;;;;;;4141882;28;20042;-65
2023/10/14 10:47:45;;;;;;;4.15;1.83;;;;;;;;;;4148846;28;20050;-66
2023/10/14 10:49:58;;;;;;;5.60;1.55;;;;;;;;;;4145836;28;20038;-65
2023/10/14 10:52:07;;;;;;;2.90;1.83;;;;;;;;;;4140116;28;20045;-65
2023/10/14 10:54:11;;;;;;;2.60;1.45;;;;;;;;;;4148172;28;20050;-65
2023/10/14 10:56:13;;;;;;;4.07;1.95;;;;;;;;;;4148277;28;20473;-65
2023/10/14 10:58:16;;;;;;;4.10;1.92;;;;;;;;;;4149135;28;20045;-65
2023/10/14 11:00:18;;;;;;;2.15;1.90;;;;;;;;;;4148116;28;20092;-65
2023/10/14 11:02:20;;;;;;;2.22;2.00;;;;;;;;;;4148931;28;20516;-65
2023/10/14 11:04:22;;;;;;;2.38;1.90;;;;;;;;;;4148474;28;20053;-65
2023/10/14 11:06:25;;;;;;;3.30;2.05;;;;;;;;;;4148511;28;20052;-65
2023/10/14 11:08:27;;;;;;;2.67;2.33;;;;;;;;;;4149058;28;20076;-65
2023/10/14 11:10:29;;;;;;;6.55;1.67;;;;;;;;;;4148633;28;20136;-65
2023/10/14 11:12:34;;;;;;;2.42;1.88;;;;;;;;;;4149042;28;20042;-65
2023/10/14 11:14:36;;;;;;;2.55;2.15;;;;;;;;;;4147958;28;20104;-64
2023/10/14 11:16:42;;;;;;;3.70;1.95;;;;;;;;;;4148088;28;20042;-65
2023/10/14 11:18:46;;;;;;;2.60;1.60;;;;;;;;;;4148713;28;20132;-65
2023/10/14 11:20:47;;;;;;;5.88;2.40;;;;;;;;;;4146692;28;20096;-65
2023/10/14 11:22:49;;;;;;;5.65;2.17;;;;;;;;;;4148601;28;20500;-66
2023/10/14 11:24:52;;;;;;;6.78;2.20;;;;;;;;;;4148665;28;20046;-65
2023/10/14 11:26:55;;;;;;;3.35;1.63;;;;;;;;;;4148805;28;20069;-65
2023/10/14 11:28:59;;;;;;;2.40;1.67;;;;;;;;;;4148098;28;20042;-65
2023/10/14 11:31:01;;;;;;;3.10;1.75;;;;;;;;;;4148662;28;20043;-65
2023/10/14 11:33:02;;;;;;;;;;;;;;;;;;4146880;28;20046;-65
2023/10/14 11:35:05;;;;;;;2.13;2.00;;;;;;;;;;4147591;28;20393;-65
2023/10/14 11:37:07;;;;;;;2.65;1.75;;;;;;;;;;4141843;28;20030;-64
2023/10/14 11:39:15;;;;;;;6.38;1.67;;;;;;;;;;4139630;28;20124;-65
2023/10/14 11:41:17;;;;;;;2.55;1.13;;;;;;;;;;4146778;28;20105;-65
2023/10/14 11:43:21;;;;;;;1.80;1.65;;;;;;;;;;4147886;28;20522;-65
2023/10/14 11:45:24;;;;;;;5.28;1.70;;;;;;;;;;4146050;28;20064;-65
2023/10/14 11:47:28;;;;;;;7.95;2.15;;;;;;;;;;4147194;28;20038;-65
2023/10/14 11:49:30;;;;;;;2.75;1.73;;;;;;;;;;4146603;28;20524;-65
2023/10/14 11:51:37;;;;;;;4.45;2.00;;;;;;;;;;4147281;28;20453;-65
2023/10/14 11:53:43;;;;;;;4.35;1.58;;;;;;;;;;4148590;28;20046;-65
2023/10/14 11:55:44;;;;;;;1.52;1.42;;;;;;;;;;4148108;28;20037;-65
2023/10/14 11:57:47;;;;;;;5.13;1.67;;;;;;;;;;4138371;28;20065;-60
2023/10/14 11:59:49;;;;;;;3.67;2.88;;;;;;;;;;4146420;28;20379;-60
2023/10/14 12:01:50;;;;;;;3.95;1.30;;;;;;;;;;4144319;28;20096;-60
2023/10/14 12:03:52;;;;;;;4.38;1.40;;;;;;;;;;4147968;28;20046;-60
2023/10/14 12:05:57;;;;;;;6.25;1.40;;;;;;;;;;4147586;28;20069;-60
2023/10/14 12:08:01;;;;;;;4.75;1.50;;;;;;;;;;4141797;28;20042;-60
2023/10/14 12:10:05;;;;;;;3.83;1.88;;;;;;;;;;4140133;28;20038;-60
2023/10/14 12:12:08;;;;;;;1.90;1.75;;;;;;;;;;4146859;28;20038;-60
2023/10/14 12:14:16;;;;;;;3.97;1.38;;;;;;;;;;4137950;28;20494;-60
2023/10/14 12:16:18;;;;;;;4.55;1.58;;;;;;;;;;4136798;28;20510;-59
2023/10/14 12:18:20;;;;;;;1.77;1.55;;;;;;;;;;4147889;28;20038;-60
2023/10/14 12:20:22;;;;;;;2.13;0.98;;;;;;;;;;4147938;28;20835;-60
2023/10/14 12:22:24;;;;;;;5.55;1.27;;;;;;;;;;4142231;28;20038;-60
2023/10/14 12:24:26;;;;;;;2.35;1.27;;;;;;;;;;4139300;28;20046;-60
2023/10/14 12:26:30;;;;;;;1.40;1.38;;;;;;;;;;4139741;28;20042;-60
2023/10/14 12:28:39;;;;;;;4.57;1.15;;;;;;;;;;4134765;28;20043;-59
2023/10/14 12:30:42;;;;;;;4.13;1.63;;;;;;;;;;4123737;28;20069;-59
2023/10/14 12:32:46;;;;;;;4.80;1.30;;;;;;;;;;4137631;28;20042;-61
2023/10/14 12:34:49;;;;;;;2.35;1.55;;;;;;;;;;4136607;28;20042;-61
2023/10/14 12:36:52;;;;;;;3.75;1.15;;;;;;;;;;4133908;28;20042;-60
2023/10/14 12:38:54;;;;;;;5.25;1.42;;;;;;;;;;4136017;28;20069;-61
2023/10/14 12:40:56;;;;;;;4.00;1.20;;;;;;;;;;4136432;28;20529;-61
2023/10/14 12:43:02;;;;;;;6.05;1.20;;;;;;;;;;4134938;28;20064;-60